createdAt,value
2022-11-18T00:01:35.471Z,100047.56
2022-11-18T00:04:02.379Z,100044.63
2022-11-18T00:06:29.951Z,100051.84
2022-11-18T00:08:56.531Z,100057.44
2022-11-18T00:11:43.861Z,100054.53
2022-11-18T00:14:19.456Z,100052.69
2022-11-18T00:16:47.941Z,100056.19
2022-11-18T00:19:15.856Z,100056.19
2022-11-18T00:21:42.710Z,100057.44
2022-11-18T00:24:09.896Z,100059.69
2022-11-18T00:26:36.536Z,100055.75
2022-11-18T00:29:04.275Z,100058.00
2022-11-18T00:31:30.889Z,100052.84
2022-11-18T00:33:57.420Z,100063.00
2022-11-18T00:36:23.980Z,100070.44
2022-11-18T00:38:50.461Z,100060.31
2022-11-18T00:41:17.087Z,100074.97
2022-11-18T00:43:43.628Z,100065.84
2022-11-18T00:46:13.503Z,100074.34
2022-11-18T00:48:40.570Z,100072.31
2022-11-18T00:51:18.727Z,100085.72
2022-11-18T00:53:45.664Z,100080.94
2022-11-18T00:56:27.290Z,100079.69
2022-11-18T00:58:53.811Z,100081.59
2022-11-18T01:01:20.414Z,100083.41
2022-11-18T01:03:46.995Z,100086.09
2022-11-18T01:06:13.523Z,100081.13
2022-11-18T01:08:40.184Z,100087.09
2022-11-18T01:11:25.419Z,100093.13
2022-11-18T01:13:52.771Z,100093.38
2022-11-18T01:16:27.826Z,100092.09
2022-11-18T01:18:54.769Z,100101.63
2022-11-18T01:21:24.385Z,100101.56
2022-11-18T01:23:51.143Z,100105.31
2022-11-18T01:26:18.195Z,100102.63
2022-11-18T01:28:45.249Z,100101.97
2022-11-18T01:31:14.933Z,100115.88
2022-11-18T01:33:42.671Z,100112.16
2022-11-18T01:36:21.155Z,100105.94
2022-11-18T01:38:48.110Z,100115.41
2022-11-18T01:41:15.740Z,100116.44
2022-11-18T01:43:54.346Z,100118.91
2022-11-18T01:46:22.834Z,100108.13
2022-11-18T01:48:54.851Z,100115.19
2022-11-18T01:51:26.751Z,100112.91
2022-11-18T01:54:00.286Z,100117.63
2022-11-18T01:56:37.423Z,100137.69
2022-11-18T01:59:09.450Z,100139.91
2022-11-18T02:01:36.375Z,100139.91
2022-11-18T02:04:03.591Z,100141.13
2022-11-18T02:06:30.148Z,100145.69
2022-11-18T02:08:57.164Z,100145.09
2022-11-18T02:11:42.420Z,100140.31
2022-11-18T02:14:10.424Z,100147.97
2022-11-18T02:16:45.679Z,100148.59
2022-11-18T02:19:43.010Z,100157.88
2022-11-18T02:22:09.487Z,100146.47
2022-11-18T02:24:49.014Z,100154.53
2022-11-18T02:27:38.728Z,100151.84
2022-11-18T02:30:08.888Z,100159.50
2022-11-18T02:32:41.308Z,100156.19
2022-11-18T02:35:23.732Z,100157.88
2022-11-18T02:37:56.881Z,100162.16
2022-11-18T02:40:31.747Z,100161.69
2022-11-18T02:43:08.127Z,100163.38
2022-11-18T02:45:36.332Z,100155.09
2022-11-18T02:48:08.602Z,100162.34
2022-11-18T02:50:37.660Z,100162.56
2022-11-18T02:53:07.651Z,100165.81
2022-11-18T02:55:37.476Z,100168.50
2022-11-18T02:58:05.921Z,100159.22
2022-11-18T03:00:33.360Z,100162.31
2022-11-18T03:03:00.519Z,100172.81
2022-11-18T03:05:35.296Z,100172.75
2022-11-18T03:08:10.654Z,100170.06
2022-11-18T03:10:49.781Z,100185.13
2022-11-18T03:13:35.129Z,100178.53
2022-11-18T03:16:07.182Z,100182.34
2022-11-18T03:18:33.660Z,100200.53
2022-11-18T03:21:10.300Z,100185.22
2022-11-18T03:23:41.407Z,100192.19
2022-11-18T03:26:23.206Z,100195.06
2022-11-18T03:29:01.708Z,100189.75
2022-11-18T03:31:33.783Z,100192.22
2022-11-18T03:34:06.573Z,100191.97
2022-11-18T03:36:40.627Z,100199.63
2022-11-18T03:39:10.350Z,100203.31
2022-11-18T03:41:45.125Z,100203.31
2022-11-18T03:44:17.056Z,100209.31
2022-11-18T03:46:45.476Z,100201.66
2022-11-18T03:49:21.775Z,100195.88
2022-11-18T03:51:55.196Z,100212.41
2022-11-18T03:54:29.311Z,100205.75
2022-11-18T03:57:18.349Z,100210.66
2022-11-18T03:59:59.962Z,100209.19
2022-11-18T04:02:29.323Z,100219.75
2022-11-18T04:04:59.230Z,100220.19
2022-11-18T04:07:45.386Z,100216.50
2022-11-18T04:10:17.702Z,100227.59
2022-11-18T04:13:04.656Z,100220.66
2022-11-18T04:15:32.886Z,100228.72
2022-11-18T04:17:59.777Z,100227.59
2022-11-18T04:20:26.939Z,100235.50
2022-11-18T04:22:53.479Z,100240.03
2022-11-18T04:25:20.082Z,100242.44
2022-11-18T04:27:48.616Z,100243.28
2022-11-18T04:30:15.124Z,100245.72
2022-11-18T04:32:41.625Z,100251.72
2022-11-18T04:35:08.827Z,100249.28
2022-11-18T04:37:35.327Z,100249.03
2022-11-18T04:40:01.907Z,100250.13
2022-11-18T04:42:28.558Z,100257.16
2022-11-18T04:44:55.431Z,100259.66
2022-11-18T04:47:22.139Z,100249.47
2022-11-18T04:49:48.753Z,100253.19
2022-11-18T04:52:15.395Z,100251.34
2022-11-18T04:54:42.095Z,100259.41
2022-11-18T04:57:09.009Z,100265.53
2022-11-18T04:59:35.598Z,100258.94
2022-11-18T05:02:02.337Z,100263.13
2022-11-18T05:04:31.676Z,100270.31
2022-11-18T05:06:59.652Z,100276.75
2022-11-18T05:09:31.510Z,100267.56
2022-11-18T05:12:20.106Z,100284.88
2022-11-18T05:14:49.966Z,100281.19
2022-11-18T05:17:17.904Z,100279.06
2022-11-18T05:19:44.551Z,100284.88
2022-11-18T05:22:11.115Z,100285.75
2022-11-18T05:24:37.669Z,100288.22
2022-11-18T05:27:04.216Z,100288.59
2022-11-18T05:29:30.752Z,100298.59
2022-11-18T05:31:57.773Z,100293.22
2022-11-18T05:34:24.440Z,100302.75
2022-11-18T05:36:51.148Z,100300.25
2022-11-18T05:39:18.074Z,100304.97
2022-11-18T05:42:03.053Z,100310.34
2022-11-18T05:44:29.676Z,100321.28
2022-11-18T05:46:56.660Z,100324.63
2022-11-18T05:49:23.700Z,100317.38
2022-11-18T05:51:50.269Z,100327.50
2022-11-18T05:54:19.836Z,100323.16
2022-11-18T05:56:46.545Z,100330.94
2022-11-18T05:59:14.188Z,100330.75
2022-11-18T06:01:42.998Z,100338.13
2022-11-18T06:04:18.611Z,100331.94
2022-11-18T06:06:47.976Z,100337.50
2022-11-18T06:09:19.124Z,100353.97
2022-11-18T06:11:53.377Z,100356.50
2022-11-18T06:14:24.940Z,100345.91
2022-11-18T06:16:58.565Z,100351.28
2022-11-18T06:19:26.099Z,100351.94
2022-11-18T06:21:53.358Z,100353.69
2022-11-18T06:24:20.176Z,100363.63
2022-11-18T06:26:47.719Z,100354.91
2022-11-18T06:29:20.567Z,100355.28
2022-11-18T06:31:50.997Z,100364.16
2022-11-18T06:34:17.755Z,100377.59
2022-11-18T06:36:44.314Z,100380.13
2022-11-18T06:39:10.886Z,100382.13
2022-11-18T06:41:37.445Z,100379.72
2022-11-18T06:44:04.021Z,100394.09
2022-11-18T06:46:49.441Z,100381.22
2022-11-18T06:49:16.350Z,100391.78
2022-11-18T06:51:43.165Z,100395.47
2022-11-18T06:54:11.165Z,100394.34
2022-11-18T06:56:38.253Z,100402.38
2022-11-18T06:59:05.009Z,100403.44
2022-11-18T07:01:35.445Z,100408.81
2022-11-18T07:04:02.829Z,100412.03
2022-11-18T07:06:32.789Z,100418.41
2022-11-18T07:09:04.560Z,100419.06
2022-11-18T07:11:31.159Z,100407.84
2022-11-18T07:13:57.713Z,100423.47
2022-11-18T07:16:26.330Z,100429.03
2022-11-18T07:18:54.451Z,100431.34
2022-11-18T07:21:23.740Z,100439.97
2022-11-18T07:23:50.691Z,100441.44
2022-11-18T07:26:17.903Z,100447.81
2022-11-18T07:28:44.481Z,100444.84
2022-11-18T07:31:13.465Z,100449.41
2022-11-18T07:33:41.474Z,100457.59
2022-11-18T07:36:09.913Z,100453.09
2022-11-18T07:38:36.742Z,100446.88
2022-11-18T07:41:11.906Z,100466.69
2022-11-18T07:43:39.285Z,100467.53
2022-11-18T07:46:14.488Z,100475.03
2022-11-18T07:48:42.511Z,100471.69
2022-11-18T07:51:09.304Z,100477.88
2022-11-18T07:53:36.839Z,100492.63
2022-11-18T07:56:04.863Z,100497.16
2022-11-18T07:58:31.440Z,100496.84
2022-11-18T08:00:58.360Z,100500.19
2022-11-18T08:03:28.379Z,100514.25
2022-11-18T08:06:02.202Z,100511.56
2022-11-18T08:08:28.881Z,100505.19
2022-11-18T08:10:57.395Z,100506.19
2022-11-18T08:13:24.854Z,100505.19
2022-11-18T08:15:52.287Z,100522.25
2022-11-18T08:18:19.184Z,100515.22
2022-11-18T08:20:45.897Z,100519.22
2022-11-18T08:23:13.683Z,100516.53
2022-11-18T08:25:40.997Z,100522.75
2022-11-18T08:28:07.840Z,100516.53
2022-11-18T08:30:35.386Z,100519.22
2022-11-18T08:33:02.030Z,100530.59
2022-11-18T08:35:30.054Z,100530.06
2022-11-18T08:37:56.839Z,100533.59
2022-11-18T08:40:23.992Z,100535.97
2022-11-18T08:42:50.554Z,100535.25
2022-11-18T08:45:17.508Z,100540.34
2022-11-18T08:47:44.082Z,100544.84
2022-11-18T08:50:12.074Z,100547.66
2022-11-18T08:52:38.842Z,100555.84
2022-11-18T08:55:05.759Z,100552.13
2022-11-18T08:57:32.292Z,100561.38
2022-11-18T08:59:58.884Z,100566.72
2022-11-18T09:02:25.736Z,100562.69
2022-11-18T09:04:53.402Z,100563.53
2022-11-18T09:07:21.507Z,100561.94
2022-11-18T09:09:48.763Z,100569.38
2022-11-18T09:12:17.633Z,100579.75
2022-11-18T09:17:34.808Z,100573.53
2022-11-18T09:20:01.398Z,100579.41
2022-11-18T09:22:28.013Z,100571.50
2022-11-18T09:24:54.549Z,100580.41
2022-11-18T09:27:21.179Z,100580.69
2022-11-18T09:29:47.751Z,100593.47
2022-11-18T09:32:14.728Z,100588.28
2022-11-18T09:34:41.306Z,100603.72
2022-11-18T09:37:07.877Z,100605.78
2022-11-18T09:39:36.637Z,100603.38
2022-11-18T09:42:27.293Z,100611.63
2022-11-18T09:45:14.688Z,100619.97
2022-11-18T09:47:43.096Z,100616.63
2022-11-18T09:50:47.149Z,100631.34
2022-11-18T09:53:12.378Z,100618.31
2022-11-18T09:55:41.093Z,100619.06
2022-11-18T09:58:12.849Z,100624.56
2022-11-18T10:00:43.319Z,100635.94
2022-11-18T10:03:33.691Z,100627.59
2022-11-18T10:06:12.360Z,100640.00
2022-11-18T10:08:45.233Z,100641.69
2022-11-18T10:11:18.199Z,100658.47
2022-11-18T10:13:56.760Z,100647.06
2022-11-18T10:17:15.798Z,100646.34
2022-11-18T10:19:42.253Z,100655.03
2022-11-18T10:22:24.059Z,100660.41
2022-11-18T10:24:53.649Z,100659.06
2022-11-18T10:27:20.950Z,100652.63
2022-11-18T10:29:58.008Z,100662.03
2022-11-18T10:32:24.834Z,100666.84
2022-11-18T10:34:58.895Z,100658.53
2022-11-18T10:37:52.991Z,100673.09
2022-11-18T10:40:28.119Z,100665.88
2022-11-18T10:42:54.774Z,100668.19
2022-11-18T10:45:21.471Z,100671.72
2022-11-18T10:48:16.438Z,100668.88
2022-11-18T10:50:49.353Z,100673.03
2022-11-18T10:53:34.865Z,100680.53
2022-11-18T10:56:07.663Z,100695.13
2022-11-18T10:58:52.787Z,100685.56
2022-11-18T11:01:19.337Z,100686.00
2022-11-18T11:04:04.719Z,100687.88
2022-11-18T11:06:37.477Z,100688.16
2022-11-18T11:09:04.001Z,100702.44
2022-11-18T11:11:56.970Z,100701.06
2022-11-18T11:14:43.336Z,100699.22
2022-11-18T11:17:15.563Z,100694.03
2022-11-18T11:20:05.803Z,100693.53
2022-11-18T11:22:32.949Z,100699.31
2022-11-18T11:24:59.708Z,100706.81
2022-11-18T11:30:27.689Z,100703.56
2022-11-18T11:33:04.623Z,100698.66
2022-11-18T11:36:12.084Z,100712.66
2022-11-18T11:39:04.550Z,100707.28
2022-11-18T11:41:45.516Z,100715.53
2022-11-18T11:44:17.753Z,100723.78
2022-11-18T11:47:25.738Z,100717.38
2022-11-18T11:50:07.915Z,100712.00
2022-11-18T11:52:44.894Z,100731.28
2022-11-18T11:55:48.694Z,100724.09
2022-11-18T11:58:33.132Z,100729.63
2022-11-18T12:01:13.736Z,100738.88
2022-11-18T12:03:52.370Z,100744.25
2022-11-18T12:06:19.327Z,100736.03
2022-11-18T12:09:08.018Z,100745.75
2022-11-18T12:11:46.929Z,100737.53
2022-11-18T12:14:53.930Z,100744.56
2022-11-18T12:17:27.989Z,100736.44
2022-11-18T12:19:54.630Z,100746.72
2022-11-18T12:22:21.368Z,100744.84
2022-11-18T12:24:48.034Z,100747.19
2022-11-18T12:27:37.316Z,100741.91
2022-11-18T12:30:04.454Z,100741.44
2022-11-18T12:32:42.887Z,100754.53
2022-11-18T12:35:12.460Z,100753.19
2022-11-18T12:37:45.106Z,100753.03
2022-11-18T12:40:34.753Z,100746.28
2022-11-18T12:43:25.135Z,100756.13
2022-11-18T12:45:57.202Z,100754.44
2022-11-18T12:48:27.327Z,100749.25
2022-11-18T12:51:16.455Z,100752.75
2022-11-18T12:53:50.902Z,100758.13
2022-11-18T12:56:17.418Z,100756.31
2022-11-18T12:58:48.705Z,100759.81
2022-11-18T13:01:19.137Z,100759.00
2022-11-18T13:03:45.982Z,100770.59
2022-11-18T13:06:28.471Z,100777.44
2022-11-18T13:08:59.143Z,100772.88
2022-11-18T13:11:47.063Z,100773.56
2022-11-18T13:14:51.018Z,100783.38
2022-11-18T13:17:47.659Z,100787.91
2022-11-18T13:20:23.104Z,100783.75
2022-11-18T13:23:14.447Z,100783.75
2022-11-18T13:25:42.624Z,100790.13
2022-11-18T13:28:17.363Z,100791.16
2022-11-18T13:31:13.802Z,100797.56
2022-11-18T13:33:41.121Z,100795.22
2022-11-18T13:36:18.174Z,100797.09
2022-11-18T13:39:06.173Z,100805.16
2022-11-18T13:42:00.128Z,100802.66
2022-11-18T13:44:29.750Z,100804.00
2022-11-18T13:47:22.347Z,100800.69
2022-11-18T13:49:54.921Z,100805.22
2022-11-18T13:52:38.899Z,100802.41
2022-11-18T13:55:19.124Z,100811.50
2022-11-18T13:57:50.213Z,100819.28
2022-11-18T14:00:32.050Z,100818.66
2022-11-18T14:03:17.568Z,100817.84
2022-11-18T14:05:56.691Z,100820.75
2022-11-18T14:08:28.414Z,100824.78
2022-11-18T14:10:55.559Z,100830.88
2022-11-18T14:13:25.901Z,100835.88
2022-11-18T14:15:57.819Z,100835.25
2022-11-18T14:18:35.685Z,100839.94
2022-11-18T14:21:04.640Z,100845.69
2022-11-18T14:23:36.300Z,100847.72
2022-11-18T14:26:07.114Z,100838.44
2022-11-18T14:28:37.919Z,100843.13
2022-11-18T14:31:13.174Z,100852.38
2022-11-18T14:33:39.829Z,100855.72
2022-11-18T14:36:15.555Z,100865.13
2022-11-18T14:39:11.226Z,100865.56
2022-11-18T14:41:49.776Z,100867.97
2022-11-18T14:44:17.861Z,100868.13
2022-11-18T14:46:48.279Z,100871.81
2022-11-18T14:49:22.106Z,100882.91
2022-11-18T14:51:49.962Z,100885.59
2022-11-18T14:54:25.437Z,100884.75
2022-11-18T14:56:57.123Z,100889.66
2022-11-18T14:59:23.783Z,100886.25
2022-11-18T15:01:50.546Z,100887.56
2022-11-18T15:04:17.948Z,100887.56
2022-11-18T15:06:44.903Z,100896.50
2022-11-18T15:09:12.372Z,100901.72
2022-11-18T15:11:39.184Z,100897.53
2022-11-18T15:14:05.857Z,100895.56
2022-11-18T15:16:33.880Z,100906.72
2022-11-18T15:19:02.645Z,100900.47
2022-11-18T15:21:29.419Z,100900.47
2022-11-18T15:23:56.162Z,100909.91
2022-11-18T15:26:23.914Z,100907.44
2022-11-18T15:28:52.599Z,100913.97
2022-11-18T15:31:22.960Z,100916.84
2022-11-18T15:33:51.073Z,100921.72
2022-11-18T15:36:22.047Z,100921.56
2022-11-18T15:38:49.648Z,100928.97
2022-11-18T15:41:38.289Z,100936.56
2022-11-18T15:44:05.208Z,100929.88
2022-11-18T15:46:33.398Z,100932.38
2022-11-18T15:49:00.757Z,100945.13
2022-11-18T15:51:29.493Z,100936.91
2022-11-18T15:53:56.728Z,100933.91
2022-11-18T15:56:23.256Z,100941.66
2022-11-18T15:58:59.834Z,100943.50
2022-11-18T16:01:31.584Z,100940.13
2022-11-18T16:03:58.227Z,100947.19
2022-11-18T16:06:25.557Z,100944.31
2022-11-18T16:08:58.855Z,100947.38
2022-11-18T16:11:45.022Z,100951.56
2022-11-18T16:14:13.916Z,100960.78
2022-11-18T16:16:42.304Z,100959.81
2022-11-18T16:19:11.598Z,100967.84
2022-11-18T16:21:40.859Z,100970.19
2022-11-18T16:24:09.499Z,100973.22
2022-11-18T16:26:37.191Z,100986.31
2022-11-18T16:29:05.962Z,100990.00
2022-11-18T16:31:41.829Z,100989.31
2022-11-18T16:34:13.152Z,100996.03
2022-11-18T16:36:41.841Z,101007.41
2022-11-18T16:39:14.092Z,101002.03
2022-11-18T16:41:42.304Z,101007.44
2022-11-18T16:44:11.671Z,100998.38
2022-11-18T16:46:40.430Z,101014.16
2022-11-18T16:49:08.121Z,101004.59
2022-11-18T16:52:07.135Z,101013.13
2022-11-18T16:54:41.023Z,101007.25
2022-11-18T16:57:11.458Z,101003.41
2022-11-18T16:59:37.979Z,101013.97
2022-11-18T17:02:06.145Z,101000.72
2022-11-18T17:04:35.420Z,101011.16
2022-11-18T17:07:02.211Z,101015.34
2022-11-18T17:09:28.812Z,101018.69
2022-11-18T17:11:56.534Z,101025.72
2022-11-18T17:14:23.885Z,101025.22
2022-11-18T17:16:51.473Z,101037.13
2022-11-18T17:19:20.896Z,101037.94
2022-11-18T17:21:48.887Z,101034.25
2022-11-18T17:24:20.842Z,101031.56
2022-11-18T17:26:48.527Z,101033.75
2022-11-18T17:29:15.849Z,101037.44
2022-11-18T17:31:43.042Z,101042.97
2022-11-18T17:34:14.470Z,101039.44
2022-11-18T17:36:41.954Z,101046.66
2022-11-18T17:39:10.911Z,101037.75
2022-11-18T17:41:56.309Z,101050.97
2022-11-18T17:44:23.135Z,101047.28
2022-11-18T17:46:50.077Z,101055.63
2022-11-18T17:49:18.286Z,101057.31
2022-11-18T17:51:48.244Z,101048.75
2022-11-18T17:54:15.970Z,101052.44
2022-11-18T17:56:42.908Z,101050.78
2022-11-18T17:59:09.509Z,101056.16
2022-11-18T18:01:36.247Z,101058.66
2022-11-18T18:04:03.178Z,101065.72
2022-11-18T18:06:29.765Z,101073.91
2022-11-18T18:08:59.816Z,101071.88
2022-11-18T18:11:27.164Z,101072.34
2022-11-18T18:14:12.496Z,101076.72
2022-11-18T18:16:46.144Z,101088.78
2022-11-18T18:19:16.129Z,101086.91
2022-11-18T18:21:42.652Z,101092.22
2022-11-18T18:24:10.048Z,101090.03
2022-11-18T18:26:37.405Z,101102.09
2022-11-18T18:29:05.008Z,101096.56
2022-11-18T18:31:36.738Z,101106.94
2022-11-18T18:34:04.130Z,101098.69
2022-11-18T18:36:30.947Z,101103.38
2022-11-18T18:38:58.656Z,101103.53
2022-11-18T18:41:25.155Z,101109.06
2022-11-18T18:43:51.775Z,101123.13
2022-11-18T18:46:32.045Z,101109.22
2022-11-18T18:49:07.533Z,101121.38
2022-11-18T18:51:37.978Z,101114.88
2022-11-18T18:54:04.802Z,101108.47
2022-11-18T18:56:32.561Z,101111.28
2022-11-18T18:58:59.712Z,101113.09
2022-11-18T19:01:27.920Z,101117.06
2022-11-18T19:04:03.114Z,101126.94
2022-11-18T19:06:58.416Z,101125.25
2022-11-18T19:09:22.119Z,101134.00
2022-11-18T19:12:07.200Z,101135.00
2022-11-18T19:14:35.422Z,101137.50
2022-11-18T19:17:06.624Z,101137.66
2022-11-18T19:19:55.208Z,101134.28
2022-11-18T19:22:22.108Z,101120.75
2022-11-18T19:24:50.491Z,101124.44
2022-11-18T19:27:18.497Z,101125.59
2022-11-18T19:29:45.340Z,101129.88
2022-11-18T19:32:12.254Z,101132.19
2022-11-18T19:34:38.783Z,101140.91
2022-11-18T19:37:05.329Z,101142.88
2022-11-18T19:39:31.849Z,101154.31
2022-11-18T19:41:58.877Z,101159.81
2022-11-18T19:44:25.508Z,101164.06
2022-11-18T19:46:52.033Z,101169.59
2022-11-18T19:49:18.951Z,101174.94
2022-11-18T19:51:45.709Z,101178.31
2022-11-18T19:54:12.366Z,101186.81
2022-11-18T19:56:38.996Z,101193.31
2022-11-18T19:59:05.558Z,101191.78
2022-11-18T20:01:32.860Z,101183.06
2022-11-18T20:04:03.198Z,101192.72
2022-11-18T20:06:30.202Z,101189.66
2022-11-18T20:08:58.361Z,101195.41
2022-11-18T20:11:26.257Z,101189.50
2022-11-18T20:13:53.450Z,101187.66
2022-11-18T20:16:25.275Z,101204.03
2022-11-18T20:18:56.510Z,101207.16
2022-11-18T20:21:25.066Z,101213.25
2022-11-18T20:23:57.688Z,101214.56
2022-11-18T20:26:27.058Z,101198.34
2022-11-18T20:28:57.387Z,101206.97
2022-11-18T20:31:26.112Z,101212.44
2022-11-18T20:33:54.929Z,101213.41
2022-11-18T20:36:24.557Z,101216.78
2022-11-18T20:38:58.840Z,101214.84
2022-11-18T20:41:26.540Z,101213.16
2022-11-18T20:43:53.627Z,101208.88
2022-11-18T20:46:21.944Z,101213.09
2022-11-18T20:48:50.339Z,101218.91
2022-11-18T20:51:23.778Z,101218.28
2022-11-18T20:53:52.280Z,101231.53
2022-11-18T20:56:26.514Z,101231.53
2022-11-18T20:58:54.448Z,101246.44
2022-11-18T21:01:25.262Z,101240.53
2022-11-18T21:04:01.813Z,101241.69
2022-11-18T21:06:30.724Z,101245.06
2022-11-18T21:08:59.551Z,101252.09
2022-11-18T21:11:26.930Z,101256.91
2022-11-18T21:14:12.380Z,101258.19
2022-11-18T21:16:40.736Z,101259.16
2022-11-18T21:19:07.414Z,101257.47
2022-11-18T21:21:45.818Z,101262.56
2022-11-18T21:24:14.533Z,101270.19
2022-11-18T21:26:41.750Z,101270.94
2022-11-18T21:29:10.077Z,101280.63
2022-11-18T21:31:37.342Z,101286.25
2022-11-18T21:34:04.589Z,101280.50
2022-11-18T21:36:31.313Z,101288.53
2022-11-18T21:38:59.079Z,101282.50
2022-11-18T21:41:26.930Z,101281.22
2022-11-18T21:44:09.747Z,101277.81
2022-11-18T21:46:37.528Z,101277.72
2022-11-18T21:49:05.185Z,101278.44
2022-11-18T21:51:32.575Z,101290.09
2022-11-18T21:54:02.645Z,101287.69
2022-11-18T21:56:31.279Z,101287.03
2022-11-18T21:59:00.847Z,101293.91
2022-11-18T22:01:29.890Z,101292.78
2022-11-18T22:03:58.557Z,101295.91
2022-11-18T22:06:26.467Z,101294.19
2022-11-18T22:08:53.133Z,101293.03
2022-11-18T22:11:23.506Z,101294.88
2022-11-18T22:13:54.137Z,101291.94
2022-11-18T22:16:23.089Z,101288.72
2022-11-18T22:18:57.002Z,101293.66
2022-11-18T22:21:26.491Z,101294.19
2022-11-18T22:23:57.396Z,101304.22
2022-11-18T22:26:24.090Z,101304.34
2022-11-18T22:28:55.598Z,101305.06
2022-11-18T22:31:24.062Z,101313.34
2022-11-18T22:33:52.306Z,101316.00
2022-11-18T22:36:20.952Z,101319.25
2022-11-18T22:38:48.017Z,101321.75
2022-11-18T22:41:44.465Z,101319.09
2022-11-18T22:44:12.506Z,101314.72
2022-11-18T22:46:40.337Z,101314.47
2022-11-18T22:49:08.440Z,101314.31
2022-11-18T22:51:36.335Z,101313.59
2022-11-18T22:54:36.673Z,101315.88
2022-11-18T22:56:50.430Z,101315.31
2022-11-18T22:59:17.320Z,101311.91
2022-11-18T23:01:44.436Z,101313.63
2022-11-18T23:04:10.958Z,101323.72
2022-11-18T23:06:37.576Z,101323.19
2022-11-18T23:09:04.281Z,101324.84
2022-11-18T23:11:49.882Z,101329.91
2022-11-18T23:14:16.680Z,101329.91
2022-11-18T23:16:43.746Z,101336.91
2022-11-18T23:19:13.035Z,101348.97
2022-11-18T23:21:39.899Z,101347.72
2022-11-18T23:24:07.765Z,101352.03
2022-11-18T23:26:34.337Z,101348.22
2022-11-18T23:29:00.820Z,101354.94
2022-11-18T23:31:27.795Z,101352.41
2022-11-18T23:33:57.828Z,101360.84
2022-11-18T23:36:25.750Z,101351.97
2022-11-18T23:38:53.582Z,101354.97
2022-11-18T23:41:20.989Z,101363.19
2022-11-18T23:43:48.797Z,101369.31
2022-11-18T23:46:16.997Z,101361.31
2022-11-18T23:48:44.474Z,101365.31
2022-11-18T23:51:20.535Z,101358.31
2022-11-18T23:53:51.425Z,101363.41
2022-11-18T23:56:19.694Z,101365.47
2022-11-18T23:58:48.844Z,101361.16
